Terminal Aerodrome Forecast
Issued by NWS

Home | Current Version | Previous Version | Text Only | Print | Product List | Glossary On
Versions: 1 2 3 4 5 6 7 8 9 10 11 12 13 14 15 16 17 18 19 20 21 22 23 24 25 26 27 28
000
FTUS43 KLSX 181600 AAC
TAFSUS
TAF AMD
KSUS 181638Z 1817/1912 VRB03KT P6SM BKN009
     FM181700 VRB03KT P6SM SCT012
     FM190000 00000KT P6SM SCT030=

USA.gov is the U.S. government's official web portal to all federal, state and local government web resources and services.